Time;durP1;ratioP1;P1;durP2;ratioP2;P2;SDS_P1;SDS_P2;PMS_P1;PMS_P2;Temp;Humidity;BMP_temperature;BMP_pressure;BME280_temperature;BME280_humidity;BME280_pressure;Samples;Min_cycle;Max_cycle;Signal;HPM_P1;HPM_P2
2022/03/21 00:01:32;;;;;;;64.50;47.43;;;;;;;-0.25;85.58;102859.50;5014502;28;20904;-79
2022/03/21 00:03:57;;;;;;;65.13;48.40;;;;;;;-0.28;85.90;102853.53;5014774;28;20148;-79
2022/03/21 00:06:23;;;;;;;64.30;48.57;;;;;;;-0.30;85.88;102855.41;5012698;28;20308;-79
2022/03/21 00:08:48;;;;;;;68.60;51.33;;;;;;;-0.34;86.79;102854.72;5013931;28;20095;-79
2022/03/21 00:11:14;;;;;;;61.60;46.97;;;;;;;-0.39;86.95;102864.81;5014739;28;20112;-79
2022/03/21 00:13:39;;;;;;;71.57;51.00;;;;;;;-0.37;86.88;102860.25;5014547;28;20041;-79
2022/03/21 00:16:05;;;;;;;64.17;46.80;;;;;;;-0.44;86.67;102872.22;5014688;28;20614;-78
2022/03/21 00:18:31;;;;;;;69.63;50.77;;;;;;;-0.45;86.97;102870.50;5004708;28;20504;-78
2022/03/21 00:20:57;;;;;;;63.23;47.27;;;;;;;-0.55;87.02;102868.34;5014370;28;20064;-79
2022/03/21 00:23:23;;;;;;;66.17;48.87;;;;;;;-0.52;86.86;102870.88;5014266;28;20280;-79
2022/03/21 00:25:49;;;;;;;66.87;48.70;;;;;;;-0.47;86.40;102878.56;5014469;28;20580;-79
2022/03/21 00:28:14;;;;;;;68.63;49.47;;;;;;;-0.50;86.26;102881.41;5014726;28;20292;-79
2022/03/21 00:30:42;;;;;;;68.53;49.97;;;;;;;-0.56;86.51;102882.63;5013997;28;20045;-79
2022/03/21 00:33:08;;;;;;;69.63;50.17;;;;;;;-0.57;86.88;102885.38;5003679;28;20041;-79
2022/03/21 00:35:34;;;;;;;71.03;49.40;;;;;;;-0.63;87.31;102880.41;5012581;28;20916;-78
2022/03/21 00:37:59;;;;;;;63.50;46.43;;;;;;;-0.64;87.00;102886.66;5015074;28;20042;-79
2022/03/21 00:40:25;;;;;;;67.87;47.97;;;;;;;-0.55;87.39;102888.81;5029437;28;20354;-79
2022/03/21 00:42:51;;;;;;;69.17;49.27;;;;;;;-0.60;87.07;102889.09;5014404;28;20040;-79
2022/03/21 00:45:19;;;;;;;65.53;46.87;;;;;;;-0.63;86.42;102894.56;5013706;28;20062;-78
2022/03/21 00:47:47;;;;;;;69.10;48.13;;;;;;;-0.63;86.49;102893.72;5029479;28;20303;-79
2022/03/21 00:50:14;;;;;;;64.73;47.30;;;;;;;-0.66;86.11;102897.41;5014133;28;20958;-79
2022/03/21 00:52:45;;;;;;;63.27;45.80;;;;;;;-0.73;86.26;102888.06;5013975;28;20422;-79
2022/03/21 00:55:12;;;;;;;63.80;45.77;;;;;;;-0.75;86.15;102898.81;5014030;28;20644;-79
2022/03/21 00:57:40;;;;;;;64.47;48.03;;;;;;;-0.81;86.19;102888.50;5014509;28;20307;-79
2022/03/21 01:00:08;;;;;;;65.93;47.53;;;;;;;-0.79;85.96;102891.94;5012535;28;20295;-79
2022/03/21 01:02:35;;;;;;;63.10;46.30;;;;;;;-0.79;86.01;102899.06;5013671;28;20300;-79
2022/03/21 01:05:00;;;;;;;59.43;44.33;;;;;;;-0.85;85.59;102893.13;5014172;28;20636;-79
2022/03/21 01:07:26;;;;;;;62.47;45.07;;;;;;;-0.86;85.35;102893.22;5014384;28;20284;-79
2022/03/21 01:09:51;;;;;;;57.63;42.47;;;;;;;-0.95;85.93;102897.25;5014039;28;20037;-79
2022/03/21 01:12:17;;;;;;;60.07;43.87;;;;;;;-0.94;86.09;102904.31;5013039;28;20225;-79
2022/03/21 01:14:42;;;;;;;62.97;44.30;;;;;;;-0.92;86.12;102902.41;5013582;28;20041;-79
2022/03/21 01:17:07;;;;;;;60.80;42.93;;;;;;;-0.99;86.19;102901.03;5014481;28;20041;-79
2022/03/21 01:19:33;;;;;;;57.60;43.73;;;;;;;-0.95;86.65;102905.25;5004577;28;20075;-79
2022/03/21 01:21:58;;;;;;;59.43;44.10;;;;;;;-0.96;86.68;102914.16;5017343;28;20072;-79
2022/03/21 01:24:24;;;;;;;66.63;48.43;;;;;;;-1.00;86.86;102909.97;5017443;28;20046;-79
2022/03/21 01:26:50;;;;;;;70.53;49.10;;;;;;;-1.00;87.44;102904.63;5017439;28;20041;-78
2022/03/21 01:29:15;;;;;;;64.80;47.10;;;;;;;-1.02;87.21;102906.50;5017430;28;20302;-79
2022/03/21 01:31:41;;;;;;;63.30;45.87;;;;;;;-1.04;86.95;102905.75;5017319;28;20038;-79
2022/03/21 01:34:06;;;;;;;62.70;46.40;;;;;;;-1.03;86.72;102904.81;5016932;28;20033;-79
2022/03/21 01:36:31;;;;;;;57.50;43.53;;;;;;;-1.08;86.76;102906.88;5017650;28;20029;-79
2022/03/21 01:38:57;;;;;;;59.30;44.10;;;;;;;-1.11;86.94;102905.22;5015967;28;20493;-78
2022/03/21 01:41:22;;;;;;;72.70;51.47;;;;;;;-1.04;87.39;102901.28;5015065;28;20029;-79
2022/03/21 01:44:05;;;;;;;80.90;53.47;;;;;;;-1.11;88.61;102894.59;5015295;28;20041;-79
2022/03/21 01:46:31;;;;;;;74.27;49.90;;;;;;;-1.02;88.97;102912.72;5017045;28;20041;-79
2022/03/21 01:48:56;;;;;;;69.10;50.00;;;;;;;-1.13;88.94;102909.78;5017251;28;20303;-79
2022/03/21 01:51:22;;;;;;;68.20;49.17;;;;;;;-1.13;88.79;102915.13;5016952;28;20656;-79
2022/03/21 01:56:33;;;;;;;67.35;48.47;;;;;;;-1.16;88.97;102911.75;5017291;28;20686;-79
2022/03/21 01:58:59;;;;;;;62.67;45.50;;;;;;;-1.21;88.54;102910.19;5016885;28;20115;-78
2022/03/21 02:01:25;;;;;;;67.93;47.17;;;;;;;-1.24;88.40;102913.03;5006437;28;20312;-78
2022/03/21 02:03:50;;;;;;;64.83;47.13;;;;;;;-1.25;88.56;102908.66;5015512;28;20042;-78
2022/03/21 02:06:16;;;;;;;69.03;48.87;;;;;;;-1.26;89.00;102898.94;5016222;28;20065;-78
2022/03/21 02:08:42;;;;;;;72.03;50.23;;;;;;;-1.22;89.59;102910.28;4998564;28;20179;-78
2022/03/21 02:11:08;;;;;;;74.43;50.40;;;;;;;-1.20;88.87;102913.72;5015998;28;20030;-79
2022/03/21 02:13:34;;;;;;;70.37;50.00;;;;;;;-1.20;88.65;102917.25;5016964;28;20283;-79
2022/03/21 02:16:00;;;;;;;68.27;49.33;;;;;;;-1.21;88.68;102917.31;5016047;28;20735;-79
2022/03/21 02:18:27;;;;;;;67.27;47.50;;;;;;;-1.33;88.61;102902.91;5016855;28;20187;-79
2022/03/21 02:20:54;;;;;;;64.97;47.60;;;;;;;-1.25;88.62;102911.31;5015078;28;20052;-79
2022/03/21 02:23:47;;;;;;;71.20;48.07;;;;;;;-1.24;88.74;102909.50;5015610;28;20331;-78
2022/03/21 02:26:14;;;;;;;70.97;48.77;;;;;;;-1.24;88.53;102913.03;5016080;28;20678;-78
2022/03/21 02:28:41;;;;;;;66.30;48.30;;;;;;;-1.29;88.43;102915.09;5016580;28;20287;-79
2022/03/21 02:31:07;;;;;;;71.83;49.37;;;;;;;-1.32;88.00;102920.56;5015621;28;20300;-79
2022/03/21 02:33:33;;;;;;;66.60;47.47;;;;;;;-1.32;87.74;102915.25;5015863;28;20295;-78
2022/03/21 02:36:00;;;;;;;67.03;47.10;;;;;;;-1.34;87.97;102910.97;5015824;28;20358;-78
2022/03/21 02:38:27;;;;;;;70.17;48.60;;;;;;;-1.30;87.77;102920.50;5015517;28;20592;-79
2022/03/21 02:40:52;;;;;;;71.20;48.97;;;;;;;-1.34;87.82;102916.28;5015603;28;20334;-79
2022/03/21 02:43:18;;;;;;;66.13;48.10;;;;;;;-1.33;87.86;102921.50;5015879;28;20292;-79
2022/03/21 02:45:43;;;;;;;67.93;46.90;;;;;;;-1.38;87.74;102916.41;5015631;28;20044;-78
2022/03/21 02:48:13;;;;;;;64.07;46.63;;;;;;;-1.38;87.85;102915.56;5016014;28;20041;-79
2022/03/21 02:51:01;;;;;;;61.67;44.97;;;;;;;-1.39;88.12;102914.72;5015825;28;20030;-78
2022/03/21 02:53:29;;;;;;;65.50;47.13;;;;;;;-1.44;87.76;102916.75;5016199;28;20296;-78
2022/03/21 02:55:56;;;;;;;67.27;47.37;;;;;;;-1.45;87.59;102914.19;5015881;28;20310;-78
2022/03/21 02:58:22;;;;;;;64.13;45.83;;;;;;;-1.47;88.10;102921.38;5015823;28;20422;-78
2022/03/21 03:00:47;;;;;;;71.07;47.73;;;;;;;-1.46;88.42;102915.13;5015296;28;21068;-78
2022/03/21 03:03:13;;;;;;;68.33;48.40;;;;;;;-1.53;88.18;102907.47;5015369;28;20095;-78
2022/03/21 03:05:38;;;;;;;68.87;47.50;;;;;;;-1.55;88.51;102912.00;5014793;28;20088;-78
2022/03/21 03:08:04;;;;;;;64.33;46.37;;;;;;;-1.61;88.64;102899.03;5015924;28;20051;-78
2022/03/21 03:10:30;;;;;;;70.70;48.03;;;;;;;-1.53;88.85;102919.91;5015078;28;20493;-78
2022/03/21 03:12:55;;;;;;;68.27;48.17;;;;;;;-1.60;88.44;102905.22;5030624;28;20038;-78
2022/03/21 03:15:21;;;;;;;71.37;49.00;;;;;;;-1.54;88.35;102915.53;5014803;28;20306;-78
2022/03/21 03:17:46;;;;;;;73.43;48.60;;;;;;;-1.62;88.49;102910.63;5013750;28;20120;-78
2022/03/21 03:20:12;;;;;;;69.30;48.43;;;;;;;-1.63;88.65;102898.28;5014995;28;20033;-78
2022/03/21 03:22:38;;;;;;;66.80;46.93;;;;;;;-1.64;88.86;102909.84;5013790;28;20087;-78
2022/03/21 03:25:04;;;;;;;72.67;48.70;;;;;;;-1.70;88.54;102910.16;5014979;28;20033;-78
2022/03/21 03:27:30;;;;;;;65.40;47.77;;;;;;;-1.67;88.14;102914.44;5021241;28;20304;-78
2022/03/21 03:29:57;;;;;;;70.27;47.87;;;;;;;-1.74;88.01;102917.44;5015324;28;20041;-78
2022/03/21 03:32:23;;;;;;;68.50;47.67;;;;;;;-1.73;87.81;102915.63;5014459;28;20629;-78
2022/03/21 03:34:48;;;;;;;66.63;46.53;;;;;;;-1.78;88.06;102920.31;5015119;28;20291;-78
2022/03/21 03:37:14;;;;;;;67.63;47.20;;;;;;;-1.75;87.93;102917.53;5014864;28;20334;-78
2022/03/21 03:39:39;;;;;;;70.10;48.73;;;;;;;-1.76;87.75;102916.66;5014998;28;20593;-78
2022/03/21 03:42:06;;;;;;;70.73;49.03;;;;;;;-1.78;88.44;102913.22;5014203;28;20068;-78
2022/03/21 03:44:31;;;;;;;70.33;47.87;;;;;;;-1.79;88.33;102927.44;5004923;28;20052;-78
2022/03/21 03:46:57;;;;;;;70.17;47.07;;;;;;;-1.78;88.56;102920.31;5013814;28;20426;-78
2022/03/21 03:49:23;;;;;;;68.23;47.57;;;;;;;-1.87;88.57;102911.03;5015149;28;20052;-78
2022/03/21 03:51:49;;;;;;;67.27;46.83;;;;;;;-1.78;88.45;102925.63;5014584;28;20374;-78
2022/03/21 03:54:15;;;;;;;70.17;48.33;;;;;;;-1.81;88.54;102925.81;5014786;28;20785;-78
2022/03/21 03:56:40;;;;;;;74.23;50.63;;;;;;;-1.74;89.36;102925.41;5029506;28;20635;-78
2022/03/21 03:59:06;;;;;;;77.10;52.60;;;;;;;-1.73;90.25;102923.59;5014281;28;20045;-78
2022/03/21 04:01:31;;;;;;;76.47;51.00;;;;;;;-1.74;90.08;102927.19;5012895;28;20434;-78
2022/03/21 04:03:59;;;;;;;75.60;50.87;;;;;;;-1.72;89.75;102928.00;5029785;28;20357;-78
2022/03/21 04:06:25;;;;;;;73.77;50.13;;;;;;;-1.66;89.93;102932.13;5012988;28;20127;-78
2022/03/21 04:08:52;;;;;;;79.83;52.77;;;;;;;-1.59;90.64;102925.53;5013650;28;20647;-78
2022/03/21 04:11:18;;;;;;;82.67;52.83;;;;;;;-1.57;91.24;102929.84;5012715;28;21586;-78
2022/03/21 04:13:44;;;;;;;74.97;50.30;;;;;;;-1.57;91.01;102927.19;5014041;28;20310;-78
2022/03/21 04:16:09;;;;;;;76.43;49.97;;;;;;;-1.48;91.12;102931.16;5014149;28;20316;-78
2022/03/21 04:18:36;;;;;;;81.67;51.77;;;;;;;-1.44;91.41;102938.03;5014644;28;20393;-78
2022/03/21 04:21:03;;;;;;;75.90;50.93;;;;;;;-1.48;91.37;102928.50;5014440;28;20064;-78
2022/03/21 04:23:29;;;;;;;77.00;51.23;;;;;;;-1.48;91.45;102931.16;5014647;28;20652;-78
2022/03/21 04:25:54;;;;;;;82.97;52.50;;;;;;;-1.47;91.41;102930.22;5006653;28;20854;-78
2022/03/21 04:28:19;;;;;;;79.50;52.37;;;;;;;-1.33;92.15;102926.81;5014333;28;20029;-78
2022/03/21 04:30:45;;;;;;;88.33;56.07;;;;;;;-1.26;93.07;102930.88;5013731;28;20600;-78
2022/03/21 04:33:14;;;;;;;89.63;55.57;;;;;;;-1.24;93.92;102936.97;5014082;28;20041;-78
2022/03/21 04:35:41;;;;;;;83.83;52.03;;;;;;;-1.39;93.57;102929.81;4992067;28;20580;-78
2022/03/21 04:38:13;;;;;;;81.37;52.00;;;;;;;-1.38;92.86;102932.38;5013858;28;20304;-78
2022/03/21 04:40:42;;;;;;;77.77;50.57;;;;;;;-1.30;92.97;102929.31;5013936;28;20659;-78
2022/03/21 04:43:09;;;;;;;92.00;57.07;;;;;;;-1.24;93.71;102938.75;5013581;28;20426;-78
2022/03/21 04:45:35;;;;;;;88.63;56.23;;;;;;;-1.21;94.50;102938.59;5014559;28;20452;-78
2022/03/21 04:48:00;;;;;;;87.63;55.37;;;;;;;-1.26;94.17;102940.66;5012764;28;20307;-78
2022/03/21 04:50:25;;;;;;;87.50;53.83;;;;;;;-1.28;94.01;102938.09;5014070;28;20775;-78
2022/03/21 04:52:51;;;;;;;83.10;54.07;;;;;;;-1.24;93.95;102936.97;5013089;28;20500;-78
2022/03/21 04:55:16;;;;;;;84.03;53.13;;;;;;;-1.20;93.81;102940.31;5017438;28;20045;-78
2022/03/21 04:57:42;;;;;;;78.73;52.27;;;;;;;-1.30;93.78;102934.63;5017949;28;20176;-79
2022/03/21 05:00:08;;;;;;;76.23;50.70;;;;;;;-1.37;93.09;102930.59;5017566;28;20401;-78
2022/03/21 05:02:33;;;;;;;75.27;48.60;;;;;;;-1.30;92.75;102942.63;5017447;28;21034;-78
2022/03/21 05:04:59;;;;;;;73.67;48.53;;;;;;;-1.37;92.31;102938.56;5018134;28;20296;-78
2022/03/21 05:07:25;;;;;;;71.93;48.83;;;;;;;-1.38;91.91;102936.84;5017093;28;20123;-78
2022/03/21 05:09:51;;;;;;;66.90;46.57;;;;;;;-1.38;91.66;102948.34;5017871;28;20072;-79
2022/03/21 05:12:16;;;;;;;66.73;47.10;;;;;;;-1.36;91.60;102951.78;5016944;28;20283;-79
2022/03/21 05:14:42;;;;;;;69.97;47.13;;;;;;;-1.36;91.55;102956.22;5017138;28;20065;-79
2022/03/21 05:17:09;;;;;;;67.50;46.03;;;;;;;-1.40;91.37;102946.69;5017584;28;20037;-79
2022/03/21 05:19:36;;;;;;;73.63;49.07;;;;;;;-1.32;91.72;102955.16;5017628;28;20145;-78
2022/03/21 05:22:03;;;;;;;69.23;47.17;;;;;;;-1.33;92.39;102953.44;5017312;28;20296;-78
2022/03/21 05:32:40;;;;;;;70.47;46.07;;;;;;;-1.42;91.60;102956.56;5016865;28;20318;-78
2022/03/21 05:37:50;;;;;;;65.40;44.33;;;;;;;-1.37;91.99;102967.81;5016986;28;20052;-78
2022/03/21 05:40:35;;;;;;;74.67;47.37;;;;;;;-1.40;92.62;102960.88;5016727;28;21453;-78
2022/03/21 05:43:01;;;;;;;68.03;43.85;;;;;;;-1.39;92.76;102959.06;5017081;28;20554;-78
2022/03/21 05:45:28;;;;;;;70.40;45.90;;;;;;;-1.30;93.44;102963.03;5016832;28;20053;-78
2022/03/21 05:50:38;;;;;;;69.38;45.38;;;;;;;-1.37;93.37;102954.53;5016848;28;20389;-78
2022/03/21 05:53:41;;;;;;;75.00;46.37;;;;;;;-1.32;94.04;102951.59;5016683;28;20132;-78
2022/03/21 05:56:06;;;;;;;73.33;45.60;;;;;;;-1.37;93.90;102957.19;5016302;28;20438;-78
2022/03/21 05:58:32;;;;;;;72.80;44.67;;;;;;;-1.41;93.68;102945.00;5017596;28;20296;-78
2022/03/21 06:00:57;;;;;;;72.40;45.60;;;;;;;-1.36;93.58;102959.75;5016813;28;20033;-78
2022/03/21 06:03:24;;;;;;;68.00;45.30;;;;;;;-1.36;93.51;102961.53;5014450;28;20041;-78
2022/03/21 06:05:50;;;;;;;73.73;45.60;;;;;;;-1.32;93.79;102963.13;5016097;28;20054;-78
2022/03/21 06:08:15;;;;;;;71.00;46.60;;;;;;;-1.27;94.02;102963.72;5016473;28;21788;-78
2022/03/21 06:10:41;;;;;;;71.93;45.73;;;;;;;-1.20;94.69;102967.78;5016742;28;20044;-78
2022/03/21 06:13:07;;;;;;;74.73;47.53;;;;;;;-1.13;95.09;102962.13;5016422;28;20704;-78
2022/03/21 06:15:39;;;;;;;71.37;46.43;;;;;;;-1.19;95.15;102972.16;5031771;28;20658;-78
2022/03/21 06:18:12;;;;;;;77.97;48.50;;;;;;;-1.08;95.21;102976.03;5016551;28;20288;-78
2022/03/21 06:20:39;;;;;;;74.93;47.57;;;;;;;-1.08;95.10;102976.88;5005859;28;20346;-78
2022/03/21 06:23:05;;;;;;;73.00;46.17;;;;;;;-1.02;94.79;102978.34;5008299;28;20762;-78
2022/03/21 06:25:31;;;;;;;71.13;45.17;;;;;;;-0.96;95.00;102986.03;5016699;28;20296;-78
2022/03/21 06:27:56;;;;;;;73.60;46.03;;;;;;;-0.90;95.29;102988.34;5016458;28;20530;-78
2022/03/21 06:30:21;;;;;;;69.43;45.33;;;;;;;-0.82;95.33;102973.75;5016786;28;21383;-79
2022/03/21 06:32:47;;;;;;;75.43;47.37;;;;;;;-0.80;95.44;102991.38;5015680;28;20037;-79
2022/03/21 06:35:13;;;;;;;76.90;48.03;;;;;;;-0.83;95.28;102982.69;5008475;28;20412;-78
2022/03/21 06:37:40;;;;;;;73.53;47.70;;;;;;;-0.73;94.82;102991.88;5016070;28;20337;-79
2022/03/21 06:40:08;;;;;;;76.00;47.87;;;;;;;-0.54;95.41;102994.38;5016569;28;20048;-78
2022/03/21 06:42:33;;;;;;;76.50;48.03;;;;;;;-0.43;96.54;102993.78;5016223;28;21127;-79
2022/03/21 06:44:58;;;;;;;78.13;49.13;;;;;;;-0.35;97.17;102991.56;5014886;28;20901;-79
2022/03/21 06:47:24;;;;;;;77.27;49.40;;;;;;;-0.24;97.57;103002.44;5015610;28;20695;-79
2022/03/21 06:49:49;;;;;;;77.37;49.03;;;;;;;-0.15;97.83;103009.06;5015268;28;20053;-79
2022/03/21 06:52:18;;;;;;;76.73;48.97;;;;;;;-0.08;97.80;103004.22;5015802;28;20067;-79
2022/03/21 06:54:45;;;;;;;72.13;47.33;;;;;;;0.02;97.76;103005.41;5016014;28;20197;-79
2022/03/21 06:57:11;;;;;;;74.37;47.70;;;;;;;0.11;97.62;103017.31;5015264;28;20296;-79
2022/03/21 06:59:37;;;;;;;71.30;47.63;;;;;;;0.21;97.58;103017.66;5015966;28;20703;-79
2022/03/21 07:02:03;;;;;;;72.90;47.60;;;;;;;0.37;97.41;103014.94;5014757;28;20508;-79
2022/03/21 07:04:28;;;;;;;72.87;48.03;;;;;;;0.49;97.09;103012.41;5021878;28;20038;-79
2022/03/21 07:06:54;;;;;;;71.07;48.30;;;;;;;0.61;97.13;103002.81;5014865;28;20236;-79
2022/03/21 07:09:20;;;;;;;76.13;50.67;;;;;;;0.83;97.66;103017.53;5015203;28;20060;-79
2022/03/21 07:11:46;;;;;;;72.43;49.17;;;;;;;1.01;98.08;103032.38;5014828;28;20033;-79
2022/03/21 07:14:12;;;;;;;70.57;48.93;;;;;;;1.20;98.26;103027.69;5015614;28;20299;-79
2022/03/21 07:16:38;;;;;;;69.17;47.37;;;;;;;1.38;98.17;103023.88;5014389;28;20041;-79
2022/03/21 07:19:03;;;;;;;69.43;46.93;;;;;;;1.58;98.19;103021.72;5014400;28;20774;-79
2022/03/21 07:21:28;;;;;;;72.73;46.63;;;;;;;1.78;98.55;103033.81;5007407;28;20045;-79
2022/03/21 07:23:54;;;;;;;69.80;46.10;;;;;;;1.97;98.27;103028.09;5014534;28;20083;-79
2022/03/21 07:26:20;;;;;;;68.00;47.07;;;;;;;2.16;98.05;103022.38;5013185;28;20045;-79
2022/03/21 07:28:45;;;;;;;65.00;44.07;;;;;;;2.33;97.95;103008.72;5015001;28;20582;-79
2022/03/21 07:31:10;;;;;;;60.87;43.07;;;;;;;2.58;97.24;103014.22;5014843;28;20044;-79
2022/03/21 07:33:40;;;;;;;58.60;42.07;;;;;;;2.80;96.60;103017.16;5014796;28;20037;-79
2022/03/21 07:36:06;;;;;;;59.37;41.53;;;;;;;3.01;96.30;103019.28;5013720;28;20038;-79
2022/03/21 07:38:31;;;;;;;56.27;39.53;;;;;;;3.26;95.76;103020.19;5014727;28;20033;-79
2022/03/21 07:40:57;;;;;;;52.03;38.10;;;;;;;3.46;94.54;103022.28;5015007;28;20041;-79
2022/03/21 07:43:23;;;;;;;51.50;38.27;;;;;;;3.65;94.17;103016.44;5014680;28;20038;-79
2022/03/21 07:48:33;;;;;;;46.53;33.88;;;;;;;4.14;92.68;103022.66;5014935;28;20131;-80
2022/03/21 07:50:58;;;;;;;47.13;33.40;;;;;;;4.40;92.35;103027.88;5020926;28;20053;-79
2022/03/21 07:53:24;;;;;;;40.73;30.53;;;;;;;4.60;90.58;103033.53;5014485;28;20076;-80
2022/03/21 07:55:50;;;;;;;42.33;28.13;;;;;;;4.85;89.00;103032.50;5015175;28;20124;-80
2022/03/21 07:58:16;;;;;;;41.70;28.80;;;;;;;5.09;88.76;103035.09;5014518;28;20389;-80
2022/03/21 08:00:41;;;;;;;37.57;26.37;;;;;;;5.29;86.40;103036.19;5005188;28;20044;-80
2022/03/21 08:03:14;;;;;;;36.53;25.97;;;;;;;5.48;85.49;103018.56;5013109;28;20052;-80
2022/03/21 08:05:40;;;;;;;34.30;24.37;;;;;;;5.77;82.96;103032.31;5014709;28;20672;-80
2022/03/21 08:08:07;;;;;;;32.80;23.37;;;;;;;5.95;81.08;103031.78;5014331;28;20037;-80
2022/03/21 08:10:32;;;;;;;32.70;23.47;;;;;;;6.27;81.89;103031.81;5014887;28;20061;-80
2022/03/21 08:12:58;;;;;;;34.43;22.67;;;;;;;6.57;78.89;103035.59;5014615;28;20689;-80
2022/03/21 08:15:23;;;;;;;32.23;22.17;;;;;;;6.90;77.25;103034.50;5013969;28;20470;-80
2022/03/21 08:17:52;;;;;;;31.03;21.73;;;;;;;7.29;76.59;103047.31;5005044;28;20041;-80
2022/03/21 08:20:19;;;;;;;32.23;22.77;;;;;;;7.76;76.50;103038.63;5015076;28;20061;-80
2022/03/21 08:22:47;;;;;;;28.90;21.33;;;;;;;8.23;74.95;103049.63;5014355;28;20038;-80
2022/03/21 08:25:15;;;;;;;28.80;20.83;;;;;;;8.58;72.04;103053.63;5014690;28;20161;-81
2022/03/21 08:27:41;;;;;;;31.90;20.93;;;;;;;8.81;69.04;103055.97;5014747;28;20060;-81
2022/03/21 08:30:07;;;;;;;31.50;20.67;;;;;;;9.16;69.08;103040.94;5018185;28;20132;-81
2022/03/21 08:32:32;;;;;;;28.37;19.77;;;;;;;9.56;67.39;103045.16;5017945;28;20481;-81
2022/03/21 08:34:58;;;;;;;27.90;20.47;;;;;;;9.85;65.29;103037.88;5018837;28;20048;-81
2022/03/21 08:37:25;;;;;;;30.33;18.93;;;;;;;10.08;63.17;103033.69;5018398;28;20591;-80
2022/03/21 08:39:50;;;;;;;27.27;18.87;;;;;;;10.45;63.21;103042.69;5018429;28;20067;-81
2022/03/21 08:42:16;;;;;;;31.67;19.07;;;;;;;10.77;62.49;103043.91;5017979;28;20453;-81
2022/03/21 08:44:41;;;;;;;27.10;17.67;;;;;;;11.15;61.47;103039.06;5018137;28;20255;-80
2022/03/21 08:47:07;;;;;;;31.67;17.80;;;;;;;11.48;60.20;103040.06;5017919;28;20044;-81
2022/03/21 08:49:37;;;;;;;24.30;16.27;;;;;;;11.91;58.46;103040.03;5018574;28;20115;-80
2022/03/21 08:52:03;;;;;;;25.60;16.30;;;;;;;12.31;57.50;103040.25;5018212;28;20041;-80
2022/03/21 08:54:28;;;;;;;24.10;16.83;;;;;;;12.73;57.13;103047.38;5016632;28;20039;-81
2022/03/21 08:56:54;;;;;;;26.00;16.50;;;;;;;13.00;54.21;103040.69;5018023;28;20033;-80
2022/03/21 08:59:20;;;;;;;25.33;16.97;;;;;;;13.33;55.13;103040.56;5018294;28;20036;-80
2022/03/21 09:01:45;;;;;;;23.50;15.67;;;;;;;13.55;52.26;103040.84;5018145;28;20048;-81
2022/03/21 09:04:12;;;;;;;24.27;16.00;;;;;;;13.72;51.99;103038.03;5017805;28;20033;-81
2022/03/21 09:06:38;;;;;;;25.00;16.43;;;;;;;14.00;51.41;103047.38;5018063;28;20061;-81
2022/03/21 09:09:03;;;;;;;23.10;15.43;;;;;;;14.26;50.12;103027.06;5017868;28;20029;-81
2022/03/21 09:11:29;;;;;;;23.57;14.80;;;;;;;14.46;48.60;103034.75;5017882;28;20040;-81
2022/03/21 09:13:54;;;;;;;22.37;14.40;;;;;;;14.57;48.84;103038.94;5017454;28;20045;-81
2022/03/21 09:16:20;;;;;;;22.73;15.07;;;;;;;14.66;48.59;103038.69;5017613;28;20040;-82
2022/03/21 09:18:45;;;;;;;24.23;15.50;;;;;;;14.93;49.06;103041.84;5017218;28;20041;-81
2022/03/21 09:21:11;;;;;;;23.50;15.00;;;;;;;15.08;48.11;103032.78;5017519;28;20037;-82
2022/03/21 09:23:37;;;;;;;24.20;15.33;;;;;;;15.24;46.72;103037.22;5017641;28;20473;-80
2022/03/21 09:26:04;;;;;;;22.87;15.90;;;;;;;15.19;47.15;103029.59;5016798;28;20128;-81
2022/03/21 09:28:30;;;;;;;24.77;15.93;;;;;;;15.46;47.76;103028.06;5009019;28;20033;-80
2022/03/21 09:30:56;;;;;;;24.60;14.57;;;;;;;15.70;46.39;103026.84;5017442;28;20044;-80
2022/03/21 09:33:21;;;;;;;23.17;14.87;;;;;;;15.79;46.08;103029.47;5017074;28;20484;-80
2022/03/21 09:35:47;;;;;;;22.23;14.27;;;;;;;16.02;44.80;103023.88;5017905;28;20067;-81
2022/03/21 09:38:14;;;;;;;23.03;14.40;;;;;;;16.17;44.16;103023.81;5016695;28;20147;-81
2022/03/21 09:40:41;;;;;;;22.52;14.93;;;;;;;16.26;44.06;103022.59;5016168;28;20116;-80
2022/03/21 09:43:08;;;;;;;23.50;14.63;;;;;;;16.17;44.51;103018.34;4991063;28;20038;-81
2022/03/21 09:45:35;;;;;;;22.77;14.70;;;;;;;16.41;44.76;103010.72;5017005;28;20496;-81
2022/03/21 09:48:12;;;;;;;23.98;15.52;;;;;;;16.21;44.41;103014.16;5016937;28;20095;-81
2022/03/21 09:50:40;;;;;;;23.90;14.52;;;;;;;16.40;43.70;103019.97;5017269;28;20044;-81
2022/03/21 09:53:07;;;;;;;26.33;15.70;;;;;;;16.31;44.35;103017.38;5016747;28;20132;-81
2022/03/21 09:55:33;;;;;;;21.88;14.88;;;;;;;16.62;43.87;103009.81;5017310;28;20679;-80
2022/03/21 09:57:58;;;;;;;22.98;14.60;;;;;;;16.78;43.25;103017.75;5017382;28;20095;-81
2022/03/21 10:00:25;;;;;;;22.17;14.00;;;;;;;16.89;42.61;103021.88;5016585;28;20029;-80
2022/03/21 10:02:52;;;;;;;21.63;14.50;;;;;;;16.91;41.72;103017.00;5017063;28;20053;-80
2022/03/21 10:05:35;;;;;;;23.27;14.65;;;;;;;16.85;42.69;103015.06;5016522;28;20037;-81
2022/03/21 10:08:09;;;;;;;25.92;14.98;;;;;;;16.75;42.88;103007.19;5016648;28;20148;-81
2022/03/21 10:10:34;;;;;;;;;;;;;;;17.70;42.48;103010.19;5017415;28;20103;-83
2022/03/21 10:12:59;;;;;;;23.25;14.52;;;;;;;17.17;42.23;103005.34;5016711;28;19956;-81
2022/03/21 10:15:28;;;;;;;23.52;14.35;;;;;;;17.45;40.49;102998.94;5016348;28;20042;-81
2022/03/21 10:18:06;;;;;;;21.05;13.93;;;;;;;17.75;40.63;103001.34;5016725;28;21359;-83
2022/03/21 10:20:33;;;;;;;23.23;14.32;;;;;;;17.31;39.45;103003.53;5016456;28;20037;-80
2022/03/21 10:23:15;;;;;;;23.27;14.35;;;;;;;17.55;40.63;102999.38;5016421;28;20461;-81
2022/03/21 10:25:40;;;;;;;25.25;14.68;;;;;;;17.28;39.98;102998.44;5006721;28;20465;-81
2022/03/21 10:28:06;;;;;;;24.15;14.43;;;;;;;17.42;39.65;103001.25;5015861;28;20044;-81
2022/03/21 10:30:31;;;;;;;22.70;14.70;;;;;;;17.09;39.07;102994.56;5016461;28;20405;-83
2022/03/21 10:32:59;;;;;;;23.30;14.00;;;;;;;17.22;39.04;102991.06;5015822;28;20044;-80
2022/03/21 10:35:26;;;;;;;21.85;14.45;;;;;;;17.16;39.76;102998.19;5015919;28;20057;-82
2022/03/21 10:37:55;;;;;;;21.13;14.88;;;;;;;17.06;39.82;102986.75;5013962;28;20037;-82
2022/03/21 10:40:25;;;;;;;23.35;14.75;;;;;;;17.23;40.14;103000.97;5015977;28;20044;-81
2022/03/21 10:42:55;;;;;;;24.30;14.65;;;;;;;17.68;42.06;102997.75;5016577;28;20117;-81
2022/03/21 10:45:31;;;;;;;22.75;14.52;;;;;;;17.86;38.86;102992.50;5015690;28;20052;-81
2022/03/21 10:47:57;;;;;;;25.80;15.75;;;;;;;17.89;39.03;102996.72;5016326;28;20060;-82
2022/03/21 10:50:27;;;;;;;23.88;15.18;;;;;;;17.85;39.26;102995.44;5015971;28;20034;-82
2022/03/21 10:53:15;;;;;;;23.88;15.50;;;;;;;17.79;38.47;102988.03;5014499;28;20057;-81
2022/03/21 10:55:46;;;;;;;25.15;16.08;;;;;;;17.72;40.17;102991.63;5015766;28;20404;-82
2022/03/21 10:58:16;;;;;;;24.60;15.70;;;;;;;17.51;38.89;102989.88;5016100;28;20049;-83
2022/03/21 11:00:42;;;;;;;24.50;15.63;;;;;;;17.55;39.04;102980.19;5016020;28;20021;-82
2022/03/21 11:03:12;;;;;;;25.55;16.08;;;;;;;17.60;40.25;102979.59;5015415;28;20041;-82
2022/03/21 11:05:40;;;;;;;23.27;15.65;;;;;;;17.66;39.94;102980.66;5005412;28;20049;-82
2022/03/21 11:08:08;;;;;;;26.52;15.93;;;;;;;17.92;39.11;102974.38;5005460;28;20072;-84
2022/03/21 11:10:33;;;;;;;22.67;15.70;;;;;;;18.30;38.84;102970.19;5015659;28;21334;-83
2022/03/21 11:13:01;;;;;;;21.83;15.52;;;;;;;18.35;40.62;102979.47;5015673;28;20052;-82
2022/03/21 11:15:28;;;;;;;22.35;16.17;;;;;;;18.55;39.94;102970.38;5015313;28;20280;-82
2022/03/21 11:17:55;;;;;;;23.55;15.20;;;;;;;18.70;38.74;102973.72;5013860;28;20045;-82
2022/03/21 11:20:21;;;;;;;25.50;17.08;;;;;;;18.71;37.72;102978.16;5014853;28;20187;-80
2022/03/21 11:22:46;;;;;;;28.77;17.77;;;;;;;18.60;38.64;102976.06;5015005;28;20037;-78
2022/03/21 11:25:18;;;;;;;37.33;17.55;;;;;;;18.71;39.00;102978.16;5015187;28;20075;-77
2022/03/21 11:28:05;;;;;;;24.33;16.70;;;;;;;18.54;38.44;102972.25;5015476;28;20050;-77
2022/03/21 11:30:30;;;;;;;23.30;15.75;;;;;;;18.70;38.41;102970.16;5015590;28;20355;-77